sensor_id;sensor_type;location;lat;lon;timestamp;temperature;humidity
6439;DHT22;3252;52.540;13.290;2023-07-31T00:00:26;16.10;99.90
6439;DHT22;3252;52.540;13.290;2023-07-31T00:02:42;16.10;99.90
6439;DHT22;3252;52.540;13.290;2023-07-31T00:04:51;16.00;99.90
6439;DHT22;3252;52.540;13.290;2023-07-31T00:07:01;16.00;99.90
6439;DHT22;3252;52.540;13.290;2023-07-31T00:09:11;16.00;99.90
6439;DHT22;3252;52.540;13.290;2023-07-31T00:11:19;15.90;99.90
6439;DHT22;3252;52.540;13.290;2023-07-31T00:16:13;15.90;99.90
6439;DHT22;3252;52.540;13.290;2023-07-31T00:18:49;15.90;99.90
6439;DHT22;3252;52.540;13.290;2023-07-31T00:21:14;15.80;99.90
6439;DHT22;3252;52.540;13.290;2023-07-31T00:23:31;15.80;99.90
6439;DHT22;3252;52.540;13.290;2023-07-31T00:25:53;15.80;99.90
6439;DHT22;3252;52.540;13.290;2023-07-31T00:28:05;15.80;99.90
6439;DHT22;3252;52.540;13.290;2023-07-31T00:30:44;15.80;99.90
6439;DHT22;3252;52.540;13.290;2023-07-31T00:32:51;15.80;99.90
6439;DHT22;3252;52.540;13.290;2023-07-31T00:35:12;15.80;99.90
6439;DHT22;3252;52.540;13.290;2023-07-31T00:37:27;15.80;99.90
6439;DHT22;3252;52.540;13.290;2023-07-31T00:39:37;15.90;99.90
6439;DHT22;3252;52.540;13.290;2023-07-31T00:42:03;15.80;99.90
6439;DHT22;3252;52.540;13.290;2023-07-31T00:44:24;15.80;99.90
6439;DHT22;3252;52.540;13.290;2023-07-31T00:46:52;15.80;99.90
6439;DHT22;3252;52.540;13.290;2023-07-31T00:49:12;15.80;99.90
6439;DHT22;3252;52.540;13.290;2023-07-31T00:51:18;15.90;99.90
6439;DHT22;3252;52.540;13.290;2023-07-31T00:53:26;15.80;99.90
6439;DHT22;3252;52.540;13.290;2023-07-31T00:55:31;15.80;99.90
6439;DHT22;3252;52.540;13.290;2023-07-31T00:57:42;15.80;99.90
6439;DHT22;3252;52.540;13.290;2023-07-31T00:59:58;15.80;99.90
6439;DHT22;3252;52.540;13.290;2023-07-31T01:02:23;15.80;99.90
6439;DHT22;3252;52.540;13.290;2023-07-31T01:04:37;15.80;99.90
6439;DHT22;3252;52.540;13.290;2023-07-31T01:06:52;15.90;99.90
6439;DHT22;3252;52.540;13.290;2023-07-31T01:09:46;15.90;99.90
6439;DHT22;3252;52.540;13.290;2023-07-31T01:12:03;15.90;99.90
6439;DHT22;3252;52.540;13.290;2023-07-31T01:14:17;15.90;99.90
6439;DHT22;3252;52.540;13.290;2023-07-31T01:16:34;15.90;99.90
6439;DHT22;3252;52.540;13.290;2023-07-31T01:19:14;16.00;99.90
6439;DHT22;3252;52.540;13.290;2023-07-31T01:24:41;15.90;99.90
6439;DHT22;3252;52.540;13.290;2023-07-31T01:27:01;15.90;99.90
6439;DHT22;3252;52.540;13.290;2023-07-31T01:29:23;15.90;99.90
6439;DHT22;3252;52.540;13.290;2023-07-31T01:31:46;16.00;99.90
6439;DHT22;3252;52.540;13.290;2023-07-31T01:34:00;16.00;99.90
6439;DHT22;3252;52.540;13.290;2023-07-31T01:36:05;16.00;99.90
6439;DHT22;3252;52.540;13.290;2023-07-31T01:38:20;16.00;99.90
6439;DHT22;3252;52.540;13.290;2023-07-31T01:40:34;16.00;99.90
6439;DHT22;3252;52.540;13.290;2023-07-31T01:42:43;16.00;99.90
6439;DHT22;3252;52.540;13.290;2023-07-31T01:44:48;16.10;99.90
6439;DHT22;3252;52.540;13.290;2023-07-31T01:47:01;16.10;99.90
6439;DHT22;3252;52.540;13.290;2023-07-31T01:49:13;16.10;99.90
6439;DHT22;3252;52.540;13.290;2023-07-31T01:51:35;16.10;99.90
6439;DHT22;3252;52.540;13.290;2023-07-31T01:53:58;16.10;99.90
6439;DHT22;3252;52.540;13.290;2023-07-31T01:56:22;16.10;99.90
6439;DHT22;3252;52.540;13.290;2023-07-31T01:59:02;16.10;99.90
6439;DHT22;3252;52.540;13.290;2023-07-31T02:01:16;16.10;99.90
6439;DHT22;3252;52.540;13.290;2023-07-31T02:03:26;16.10;99.90
6439;DHT22;3252;52.540;13.290;2023-07-31T02:05:36;16.20;99.90
6439;DHT22;3252;52.540;13.290;2023-07-31T02:07:47;16.20;99.90
6439;DHT22;3252;52.540;13.290;2023-07-31T02:10:03;16.20;99.90
6439;DHT22;3252;52.540;13.290;2023-07-31T02:12:18;16.10;99.90
6439;DHT22;3252;52.540;13.290;2023-07-31T02:14:24;16.10;99.90
6439;DHT22;3252;52.540;13.290;2023-07-31T02:16:34;16.10;99.90
6439;DHT22;3252;52.540;13.290;2023-07-31T02:18:50;16.10;99.90
6439;DHT22;3252;52.540;13.290;2023-07-31T02:21:00;16.10;99.90
6439;DHT22;3252;52.540;13.290;2023-07-31T02:23:07;16.20;99.90
6439;DHT22;3252;52.540;13.290;2023-07-31T02:25:17;16.20;99.90
6439;DHT22;3252;52.540;13.290;2023-07-31T02:27:32;16.10;99.90
6439;DHT22;3252;52.540;13.290;2023-07-31T02:29:41;16.10;99.90
6439;DHT22;3252;52.540;13.290;2023-07-31T02:31:55;16.20;99.90
6439;DHT22;3252;52.540;13.290;2023-07-31T02:34:22;16.20;99.90
6439;DHT22;3252;52.540;13.290;2023-07-31T02:36:42;16.20;99.90
6439;DHT22;3252;52.540;13.290;2023-07-31T02:39:11;16.20;99.90
6439;DHT22;3252;52.540;13.290;2023-07-31T02:41:36;16.20;99.90
6439;DHT22;3252;52.540;13.290;2023-07-31T02:43:58;16.10;99.90
6439;DHT22;3252;52.540;13.290;2023-07-31T02:46:30;16.20;99.90
6439;DHT22;3252;52.540;13.290;2023-07-31T02:49:30;16.20;99.90
6439;DHT22;3252;52.540;13.290;2023-07-31T02:51:50;16.20;99.90
6439;DHT22;3252;52.540;13.290;2023-07-31T02:54:18;16.20;99.90
6439;DHT22;3252;52.540;13.290;2023-07-31T02:56:41;16.20;99.90
6439;DHT22;3252;52.540;13.290;2023-07-31T02:59:09;16.10;99.90
6439;DHT22;3252;52.540;13.290;2023-07-31T03:01:15;16.20;99.90
6439;DHT22;3252;52.540;13.290;2023-07-31T03:03:27;16.20;99.90
6439;DHT22;3252;52.540;13.290;2023-07-31T03:05:48;16.20;99.90
6439;DHT22;3252;52.540;13.290;2023-07-31T03:07:57;16.20;99.90
6439;DHT22;3252;52.540;13.290;2023-07-31T03:10:28;16.20;99.90
6439;DHT22;3252;52.540;13.290;2023-07-31T03:16:02;16.20;99.90
6439;DHT22;3252;52.540;13.290;2023-07-31T03:18:19;16.20;99.90
6439;DHT22;3252;52.540;13.290;2023-07-31T03:20:36;16.20;99.90
6439;DHT22;3252;52.540;13.290;2023-07-31T03:22:48;16.20;99.90
6439;DHT22;3252;52.540;13.290;2023-07-31T03:25:00;16.20;99.90
6439;DHT22;3252;52.540;13.290;2023-07-31T03:27:10;16.20;99.90
6439;DHT22;3252;52.540;13.290;2023-07-31T03:29:17;16.20;99.90
6439;DHT22;3252;52.540;13.290;2023-07-31T03:31:48;16.20;99.90
6439;DHT22;3252;52.540;13.290;2023-07-31T03:34:22;16.20;99.90
6439;DHT22;3252;52.540;13.290;2023-07-31T03:36:56;16.20;99.90
6439;DHT22;3252;52.540;13.290;2023-07-31T03:39:11;16.20;99.90
6439;DHT22;3252;52.540;13.290;2023-07-31T03:41:51;16.20;99.90
6439;DHT22;3252;52.540;13.290;2023-07-31T03:44:19;16.20;99.90
6439;DHT22;3252;52.540;13.290;2023-07-31T03:46:39;16.20;99.90
6439;DHT22;3252;52.540;13.290;2023-07-31T03:48:48;16.20;99.90
6439;DHT22;3252;52.540;13.290;2023-07-31T03:50:53;16.20;99.90
6439;DHT22;3252;52.540;13.290;2023-07-31T03:53:06;16.20;99.90
6439;DHT22;3252;52.540;13.290;2023-07-31T03:55:25;16.10;99.90
6439;DHT22;3252;52.540;13.290;2023-07-31T03:57:33;16.10;99.90
6439;DHT22;3252;52.540;13.290;2023-07-31T03:59:51;16.10;99.90
6439;DHT22;3252;52.540;13.290;2023-07-31T04:02:05;16.10;99.90
6439;DHT22;3252;52.540;13.290;2023-07-31T04:04:14;16.10;99.90
6439;DHT22;3252;52.540;13.290;2023-07-31T04:06:18;16.10;99.90
6439;DHT22;3252;52.540;13.290;2023-07-31T04:08:43;16.10;99.90
6439;DHT22;3252;52.540;13.290;2023-07-31T04:11:22;16.10;99.90
6439;DHT22;3252;52.540;13.290;2023-07-31T04:13:35;16.10;99.90
6439;DHT22;3252;52.540;13.290;2023-07-31T04:15:43;16.10;99.90
6439;DHT22;3252;52.540;13.290;2023-07-31T04:18:05;16.00;99.90
6439;DHT22;3252;52.540;13.290;2023-07-31T04:20:20;16.00;99.90
6439;DHT22;3252;52.540;13.290;2023-07-31T04:22:33;16.10;99.90
6439;DHT22;3252;52.540;13.290;2023-07-31T04:24:46;16.10;99.90
6439;DHT22;3252;52.540;13.290;2023-07-31T04:27:05;16.10;99.90
6439;DHT22;3252;52.540;13.290;2023-07-31T04:29:36;16.10;99.90
6439;DHT22;3252;52.540;13.290;2023-07-31T04:32:32;16.10;99.90
6439;DHT22;3252;52.540;13.290;2023-07-31T04:37:44;16.10;99.90
6439;DHT22;3252;52.540;13.290;2023-07-31T04:40:09;16.10;99.90
6439;DHT22;3252;52.540;13.290;2023-07-31T04:42:19;16.20;99.90
6439;DHT22;3252;52.540;13.290;2023-07-31T04:44:35;16.10;99.90
6439;DHT22;3252;52.540;13.290;2023-07-31T04:46:57;16.10;99.90
6439;DHT22;3252;52.540;13.290;2023-07-31T04:49:25;16.10;99.90
6439;DHT22;3252;52.540;13.290;2023-07-31T04:51:48;16.10;99.90
6439;DHT22;3252;52.540;13.290;2023-07-31T04:54:03;16.10;99.90
6439;DHT22;3252;52.540;13.290;2023-07-31T04:56:14;16.10;99.90
6439;DHT22;3252;52.540;13.290;2023-07-31T04:58:27;16.10;99.90
6439;DHT22;3252;52.540;13.290;2023-07-31T05:00:32;16.10;99.90
6439;DHT22;3252;52.540;13.290;2023-07-31T05:02:46;16.10;99.90
6439;DHT22;3252;52.540;13.290;2023-07-31T05:05:02;16.10;99.90
6439;DHT22;3252;52.540;13.290;2023-07-31T05:07:18;16.20;99.90
6439;DHT22;3252;52.540;13.290;2023-07-31T05:09:36;16.20;99.90
6439;DHT22;3252;52.540;13.290;2023-07-31T05:11:58;16.20;99.90
6439;DHT22;3252;52.540;13.290;2023-07-31T05:14:07;16.30;99.90
6439;DHT22;3252;52.540;13.290;2023-07-31T05:16:16;16.30;99.90
6439;DHT22;3252;52.540;13.290;2023-07-31T05:18:26;16.30;99.90
6439;DHT22;3252;52.540;13.290;2023-07-31T05:21:08;16.30;99.90
6439;DHT22;3252;52.540;13.290;2023-07-31T05:23:58;16.30;99.90
6439;DHT22;3252;52.540;13.290;2023-07-31T05:26:12;16.30;99.90
6439;DHT22;3252;52.540;13.290;2023-07-31T05:28:43;16.30;99.90
6439;DHT22;3252;52.540;13.290;2023-07-31T05:30:49;16.40;99.90
6439;DHT22;3252;52.540;13.290;2023-07-31T05:33:00;16.40;99.90
6439;DHT22;3252;52.540;13.290;2023-07-31T05:35:05;16.40;99.90
6439;DHT22;3252;52.540;13.290;2023-07-31T05:37:18;16.40;99.90
6439;DHT22;3252;52.540;13.290;2023-07-31T05:39:36;16.40;99.90
6439;DHT22;3252;52.540;13.290;2023-07-31T05:41:40;16.40;99.90
6439;DHT22;3252;52.540;13.290;2023-07-31T05:43:47;16.40;99.90
6439;DHT22;3252;52.540;13.290;2023-07-31T05:45:51;16.40;99.90
6439;DHT22;3252;52.540;13.290;2023-07-31T05:47:57;16.40;99.90
6439;DHT22;3252;52.540;13.290;2023-07-31T05:50:00;16.40;99.90
6439;DHT22;3252;52.540;13.290;2023-07-31T05:52:04;16.50;99.90
6439;DHT22;3252;52.540;13.290;2023-07-31T05:54:06;16.40;99.90
6439;DHT22;3252;52.540;13.290;2023-07-31T05:56:09;16.50;99.90
6439;DHT22;3252;52.540;13.290;2023-07-31T05:58:12;16.40;99.90
6439;DHT22;3252;52.540;13.290;2023-07-31T06:00:16;16.40;99.90
6439;DHT22;3252;52.540;13.290;2023-07-31T06:02:28;16.50;99.90
6439;DHT22;3252;52.540;13.290;2023-07-31T06:04:36;16.50;99.90
6439;DHT22;3252;52.540;13.290;2023-07-31T06:06:44;16.50;99.90
6439;DHT22;3252;52.540;13.290;2023-07-31T06:08:52;16.50;99.90
6439;DHT22;3252;52.540;13.290;2023-07-31T06:11:21;16.50;99.90
6439;DHT22;3252;52.540;13.290;2023-07-31T06:13:24;16.60;99.90
6439;DHT22;3252;52.540;13.290;2023-07-31T06:15:28;16.60;99.90
6439;DHT22;3252;52.540;13.290;2023-07-31T06:17:31;16.60;99.90
6439;DHT22;3252;52.540;13.290;2023-07-31T06:19:33;16.60;99.90
6439;DHT22;3252;52.540;13.290;2023-07-31T06:21:36;16.70;99.90
6439;DHT22;3252;52.540;13.290;2023-07-31T06:23:39;16.70;99.90
6439;DHT22;3252;52.540;13.290;2023-07-31T06:25:42;16.70;99.90
6439;DHT22;3252;52.540;13.290;2023-07-31T06:27:45;16.70;99.90
6439;DHT22;3252;52.540;13.290;2023-07-31T06:29:48;16.80;99.90
6439;DHT22;3252;52.540;13.290;2023-07-31T06:31:53;16.70;99.90
6439;DHT22;3252;52.540;13.290;2023-07-31T06:33:55;16.70;99.90
6439;DHT22;3252;52.540;13.290;2023-07-31T06:35:58;16.70;99.90
6439;DHT22;3252;52.540;13.290;2023-07-31T06:38:02;16.70;99.90
6439;DHT22;3252;52.540;13.290;2023-07-31T06:40:05;16.80;99.90
6439;DHT22;3252;52.540;13.290;2023-07-31T06:42:10;16.80;99.90
6439;DHT22;3252;52.540;13.290;2023-07-31T06:44:13;16.80;99.90
6439;DHT22;3252;52.540;13.290;2023-07-31T06:46:17;16.80;99.90
6439;DHT22;3252;52.540;13.290;2023-07-31T06:48:21;16.80;99.90
6439;DHT22;3252;52.540;13.290;2023-07-31T06:50:25;16.80;99.90
6439;DHT22;3252;52.540;13.290;2023-07-31T06:52:28;16.80;99.90
6439;DHT22;3252;52.540;13.290;2023-07-31T06:54:31;16.80;99.90
6439;DHT22;3252;52.540;13.290;2023-07-31T06:56:35;16.90;99.90
6439;DHT22;3252;52.540;13.290;2023-07-31T06:58:38;16.90;99.90
6439;DHT22;3252;52.540;13.290;2023-07-31T07:00:41;17.00;99.90
6439;DHT22;3252;52.540;13.290;2023-07-31T07:02:47;17.00;99.90
6439;DHT22;3252;52.540;13.290;2023-07-31T07:04:52;17.10;99.90
6439;DHT22;3252;52.540;13.290;2023-07-31T07:06:55;17.00;99.90
6439;DHT22;3252;52.540;13.290;2023-07-31T07:08:58;17.00;99.90
6439;DHT22;3252;52.540;13.290;2023-07-31T07:11:01;17.00;99.90
6439;DHT22;3252;52.540;13.290;2023-07-31T07:13:05;17.00;99.90
6439;DHT22;3252;52.540;13.290;2023-07-31T07:15:08;17.00;99.90
6439;DHT22;3252;52.540;13.290;2023-07-31T07:17:11;16.90;99.90
6439;DHT22;3252;52.540;13.290;2023-07-31T07:19:15;17.00;99.90
6439;DHT22;3252;52.540;13.290;2023-07-31T07:21:19;16.90;99.90
6439;DHT22;3252;52.540;13.290;2023-07-31T07:23:23;16.90;99.90
6439;DHT22;3252;52.540;13.290;2023-07-31T07:25:26;16.90;99.90
6439;DHT22;3252;52.540;13.290;2023-07-31T07:27:28;16.90;99.90
6439;DHT22;3252;52.540;13.290;2023-07-31T07:29:33;16.90;99.90
6439;DHT22;3252;52.540;13.290;2023-07-31T07:31:35;16.90;99.90
6439;DHT22;3252;52.540;13.290;2023-07-31T07:33:42;16.90;99.90
6439;DHT22;3252;52.540;13.290;2023-07-31T07:35:48;16.90;99.90
6439;DHT22;3252;52.540;13.290;2023-07-31T07:37:51;17.00;99.90
6439;DHT22;3252;52.540;13.290;2023-07-31T07:39:55;17.00;99.90
6439;DHT22;3252;52.540;13.290;2023-07-31T07:41:59;17.00;99.90
6439;DHT22;3252;52.540;13.290;2023-07-31T07:44:02;17.00;99.90
6439;DHT22;3252;52.540;13.290;2023-07-31T07:46:05;17.00;99.90
6439;DHT22;3252;52.540;13.290;2023-07-31T07:48:08;17.00;99.90
6439;DHT22;3252;52.540;13.290;2023-07-31T07:50:11;17.10;99.90
6439;DHT22;3252;52.540;13.290;2023-07-31T07:52:17;17.10;99.90
6439;DHT22;3252;52.540;13.290;2023-07-31T07:54:31;17.00;99.90
6439;DHT22;3252;52.540;13.290;2023-07-31T07:56:34;17.00;99.90
6439;DHT22;3252;52.540;13.290;2023-07-31T07:58:37;17.00;99.90
6439;DHT22;3252;52.540;13.290;2023-07-31T08:00:40;17.00;99.90
6439;DHT22;3252;52.540;13.290;2023-07-31T08:02:41;17.00;99.90
6439;DHT22;3252;52.540;13.290;2023-07-31T08:04:45;17.00;99.90
6439;DHT22;3252;52.540;13.290;2023-07-31T08:06:47;17.00;99.90
6439;DHT22;3252;52.540;13.290;2023-07-31T08:08:50;17.00;99.90
6439;DHT22;3252;52.540;13.290;2023-07-31T08:10:54;17.00;99.90
6439;DHT22;3252;52.540;13.290;2023-07-31T08:12:57;17.00;99.90
6439;DHT22;3252;52.540;13.290;2023-07-31T08:15:00;17.00;99.90
6439;DHT22;3252;52.540;13.290;2023-07-31T08:17:04;17.00;99.90
6439;DHT22;3252;52.540;13.290;2023-07-31T08:19:09;17.00;99.90
6439;DHT22;3252;52.540;13.290;2023-07-31T08:21:11;17.00;99.90
6439;DHT22;3252;52.540;13.290;2023-07-31T08:23:15;17.00;99.90
6439;DHT22;3252;52.540;13.290;2023-07-31T08:25:18;17.00;99.90
6439;DHT22;3252;52.540;13.290;2023-07-31T08:27:22;17.00;99.90
6439;DHT22;3252;52.540;13.290;2023-07-31T08:29:25;17.00;99.90
6439;DHT22;3252;52.540;13.290;2023-07-31T08:31:28;17.00;99.90
6439;DHT22;3252;52.540;13.290;2023-07-31T08:33:31;16.90;99.90
6439;DHT22;3252;52.540;13.290;2023-07-31T08:35:32;17.00;99.90
6439;DHT22;3252;52.540;13.290;2023-07-31T08:37:35;17.00;99.90
6439;DHT22;3252;52.540;13.290;2023-07-31T08:39:38;17.00;99.90
6439;DHT22;3252;52.540;13.290;2023-07-31T08:41:41;17.10;99.90
6439;DHT22;3252;52.540;13.290;2023-07-31T08:43:46;17.10;99.90
6439;DHT22;3252;52.540;13.290;2023-07-31T08:45:50;17.10;99.90
6439;DHT22;3252;52.540;13.290;2023-07-31T08:47:53;17.20;99.90
6439;DHT22;3252;52.540;13.290;2023-07-31T08:49:56;17.20;99.90
6439;DHT22;3252;52.540;13.290;2023-07-31T08:52:00;17.30;99.90
6439;DHT22;3252;52.540;13.290;2023-07-31T08:54:06;17.30;99.90
6439;DHT22;3252;52.540;13.290;2023-07-31T08:56:10;17.30;99.90
6439;DHT22;3252;52.540;13.290;2023-07-31T08:58:13;17.30;99.90
6439;DHT22;3252;52.540;13.290;2023-07-31T09:00:18;17.40;99.90
6439;DHT22;3252;52.540;13.290;2023-07-31T09:02:28;17.40;99.90
6439;DHT22;3252;52.540;13.290;2023-07-31T09:04:34;17.40;99.90
6439;DHT22;3252;52.540;13.290;2023-07-31T09:06:37;17.50;99.90
6439;DHT22;3252;52.540;13.290;2023-07-31T09:08:42;17.50;99.90
6439;DHT22;3252;52.540;13.290;2023-07-31T09:10:45;17.60;99.90
6439;DHT22;3252;52.540;13.290;2023-07-31T09:12:49;17.60;99.90
6439;DHT22;3252;52.540;13.290;2023-07-31T09:14:53;17.60;99.90
6439;DHT22;3252;52.540;13.290;2023-07-31T09:16:58;17.60;99.90
6439;DHT22;3252;52.540;13.290;2023-07-31T09:19:01;17.70;99.90
6439;DHT22;3252;52.540;13.290;2023-07-31T09:21:06;17.70;99.90
6439;DHT22;3252;52.540;13.290;2023-07-31T09:23:10;17.70;99.90
6439;DHT22;3252;52.540;13.290;2023-07-31T09:25:16;17.70;99.90
6439;DHT22;3252;52.540;13.290;2023-07-31T09:27:19;17.60;99.90
6439;DHT22;3252;52.540;13.290;2023-07-31T09:29:22;17.50;99.90
6439;DHT22;3252;52.540;13.290;2023-07-31T09:31:42;17.60;99.90
6439;DHT22;3252;52.540;13.290;2023-07-31T09:33:55;17.50;99.90
6439;DHT22;3252;52.540;13.290;2023-07-31T09:36:28;17.40;99.90
6439;DHT22;3252;52.540;13.290;2023-07-31T09:38:31;17.40;99.90
6439;DHT22;3252;52.540;13.290;2023-07-31T09:40:35;17.30;99.90
6439;DHT22;3252;52.540;13.290;2023-07-31T09:42:37;17.40;99.90
6439;DHT22;3252;52.540;13.290;2023-07-31T09:44:41;17.40;99.90
6439;DHT22;3252;52.540;13.290;2023-07-31T09:46:44;17.40;99.90
6439;DHT22;3252;52.540;13.290;2023-07-31T09:48:46;17.40;99.90
6439;DHT22;3252;52.540;13.290;2023-07-31T09:50:51;17.40;99.90
6439;DHT22;3252;52.540;13.290;2023-07-31T09:52:54;17.40;99.90
6439;DHT22;3252;52.540;13.290;2023-07-31T09:54:57;17.40;99.90
6439;DHT22;3252;52.540;13.290;2023-07-31T09:57:00;17.40;99.90
6439;DHT22;3252;52.540;13.290;2023-07-31T09:59:04;17.40;99.90
6439;DHT22;3252;52.540;13.290;2023-07-31T10:01:07;17.40;99.90
6439;DHT22;3252;52.540;13.290;2023-07-31T10:03:11;17.50;99.90
6439;DHT22;3252;52.540;13.290;2023-07-31T10:05:16;17.50;99.90
6439;DHT22;3252;52.540;13.290;2023-07-31T10:07:22;17.50;99.90
6439;DHT22;3252;52.540;13.290;2023-07-31T10:09:31;17.60;99.90
6439;DHT22;3252;52.540;13.290;2023-07-31T10:11:39;17.60;99.90
6439;DHT22;3252;52.540;13.290;2023-07-31T10:13:45;17.60;99.90
6439;DHT22;3252;52.540;13.290;2023-07-31T10:15:49;17.60;99.90
6439;DHT22;3252;52.540;13.290;2023-07-31T10:17:54;17.70;99.90
6439;DHT22;3252;52.540;13.290;2023-07-31T10:19:59;17.70;99.90
6439;DHT22;3252;52.540;13.290;2023-07-31T10:22:03;17.60;99.90
6439;DHT22;3252;52.540;13.290;2023-07-31T10:24:08;17.60;99.90
6439;DHT22;3252;52.540;13.290;2023-07-31T10:26:11;17.70;99.90
6439;DHT22;3252;52.540;13.290;2023-07-31T10:28:15;17.70;99.90
6439;DHT22;3252;52.540;13.290;2023-07-31T10:30:20;17.70;99.90
6439;DHT22;3252;52.540;13.290;2023-07-31T10:32:27;17.80;99.90
6439;DHT22;3252;52.540;13.290;2023-07-31T10:34:30;17.80;99.90
6439;DHT22;3252;52.540;13.290;2023-07-31T10:36:33;17.80;99.90
6439;DHT22;3252;52.540;13.290;2023-07-31T10:38:36;17.80;99.90
6439;DHT22;3252;52.540;13.290;2023-07-31T10:40:41;17.90;99.90
6439;DHT22;3252;52.540;13.290;2023-07-31T10:42:48;17.90;99.90
6439;DHT22;3252;52.540;13.290;2023-07-31T10:44:56;18.00;99.90
6439;DHT22;3252;52.540;13.290;2023-07-31T10:47:00;18.10;99.90
6439;DHT22;3252;52.540;13.290;2023-07-31T10:49:03;18.30;99.90
6439;DHT22;3252;52.540;13.290;2023-07-31T10:51:07;18.50;99.90
6439;DHT22;3252;52.540;13.290;2023-07-31T10:53:22;18.60;99.90
6439;DHT22;3252;52.540;13.290;2023-07-31T10:55:30;18.70;99.90
6439;DHT22;3252;52.540;13.290;2023-07-31T10:57:35;18.80;99.90
6439;DHT22;3252;52.540;13.290;2023-07-31T10:59:39;18.90;99.90
6439;DHT22;3252;52.540;13.290;2023-07-31T11:01:52;18.90;99.90
6439;DHT22;3252;52.540;13.290;2023-07-31T11:03:56;19.00;99.90
6439;DHT22;3252;52.540;13.290;2023-07-31T11:06:01;19.10;99.90
6439;DHT22;3252;52.540;13.290;2023-07-31T11:08:11;19.20;99.90
6439;DHT22;3252;52.540;13.290;2023-07-31T11:10:17;19.20;99.90
6439;DHT22;3252;52.540;13.290;2023-07-31T11:12:21;19.20;99.90
6439;DHT22;3252;52.540;13.290;2023-07-31T11:14:25;19.30;99.90
6439;DHT22;3252;52.540;13.290;2023-07-31T11:16:28;19.30;99.90
6439;DHT22;3252;52.540;13.290;2023-07-31T11:18:32;19.30;99.90
6439;DHT22;3252;52.540;13.290;2023-07-31T11:20:36;19.30;99.90
6439;DHT22;3252;52.540;13.290;2023-07-31T11:22:38;19.40;99.90
6439;DHT22;3252;52.540;13.290;2023-07-31T11:24:42;19.40;99.90
6439;DHT22;3252;52.540;13.290;2023-07-31T11:26:50;19.50;99.90
6439;DHT22;3252;52.540;13.290;2023-07-31T11:28:53;19.50;99.90
6439;DHT22;3252;52.540;13.290;2023-07-31T11:30:57;19.50;99.90
6439;DHT22;3252;52.540;13.290;2023-07-31T11:33:01;19.50;99.90
6439;DHT22;3252;52.540;13.290;2023-07-31T11:35:05;19.50;99.90
6439;DHT22;3252;52.540;13.290;2023-07-31T11:37:09;19.50;99.90
6439;DHT22;3252;52.540;13.290;2023-07-31T11:39:12;19.50;99.90
6439;DHT22;3252;52.540;13.290;2023-07-31T11:41:15;19.50;99.90
6439;DHT22;3252;52.540;13.290;2023-07-31T11:43:18;19.50;99.90
6439;DHT22;3252;52.540;13.290;2023-07-31T11:45:27;19.50;99.90
6439;DHT22;3252;52.540;13.290;2023-07-31T11:47:32;19.50;99.90
6439;DHT22;3252;52.540;13.290;2023-07-31T11:49:37;19.50;99.90
6439;DHT22;3252;52.540;13.290;2023-07-31T11:51:39;19.50;99.90
6439;DHT22;3252;52.540;13.290;2023-07-31T11:53:51;19.50;99.90
6439;DHT22;3252;52.540;13.290;2023-07-31T11:55:54;19.50;99.90
6439;DHT22;3252;52.540;13.290;2023-07-31T11:57:58;19.50;99.90
6439;DHT22;3252;52.540;13.290;2023-07-31T12:00:02;19.50;99.90
6439;DHT22;3252;52.540;13.290;2023-07-31T12:02:06;19.50;99.90
6439;DHT22;3252;52.540;13.290;2023-07-31T12:04:10;19.50;99.90
6439;DHT22;3252;52.540;13.290;2023-07-31T12:06:14;19.50;99.90
6439;DHT22;3252;52.540;13.290;2023-07-31T12:08:17;19.50;99.90
6439;DHT22;3252;52.540;13.290;2023-07-31T12:10:30;19.50;99.90
6439;DHT22;3252;52.540;13.290;2023-07-31T12:12:33;19.60;99.90
6439;DHT22;3252;52.540;13.290;2023-07-31T12:14:42;19.60;99.90
6439;DHT22;3252;52.540;13.290;2023-07-31T12:16:45;19.60;99.90
6439;DHT22;3252;52.540;13.290;2023-07-31T12:18:49;19.70;99.90
6439;DHT22;3252;52.540;13.290;2023-07-31T12:20:56;19.70;99.90
6439;DHT22;3252;52.540;13.290;2023-07-31T12:23:00;19.80;99.90
6439;DHT22;3252;52.540;13.290;2023-07-31T12:25:02;19.80;99.90
6439;DHT22;3252;52.540;13.290;2023-07-31T12:27:12;19.80;99.90
6439;DHT22;3252;52.540;13.290;2023-07-31T12:29:15;19.80;99.90
6439;DHT22;3252;52.540;13.290;2023-07-31T12:31:20;19.80;99.90
6439;DHT22;3252;52.540;13.290;2023-07-31T12:33:23;19.90;99.90
6439;DHT22;3252;52.540;13.290;2023-07-31T12:35:35;19.90;99.90
6439;DHT22;3252;52.540;13.290;2023-07-31T12:37:40;19.90;99.90
6439;DHT22;3252;52.540;13.290;2023-07-31T12:39:43;20.00;99.90
6439;DHT22;3252;52.540;13.290;2023-07-31T12:41:47;20.00;99.90
6439;DHT22;3252;52.540;13.290;2023-07-31T12:43:50;20.00;99.90
6439;DHT22;3252;52.540;13.290;2023-07-31T12:45:54;20.00;99.90
6439;DHT22;3252;52.540;13.290;2023-07-31T12:47:58;20.10;99.90
6439;DHT22;3252;52.540;13.290;2023-07-31T12:50:03;20.00;99.90
6439;DHT22;3252;52.540;13.290;2023-07-31T12:52:06;20.00;99.90
6439;DHT22;3252;52.540;13.290;2023-07-31T12:54:11;20.00;99.90
6439;DHT22;3252;52.540;13.290;2023-07-31T12:56:17;20.00;99.90
6439;DHT22;3252;52.540;13.290;2023-07-31T12:58:20;20.00;99.90
6439;DHT22;3252;52.540;13.290;2023-07-31T13:00:24;20.00;99.90
6439;DHT22;3252;52.540;13.290;2023-07-31T13:02:27;20.00;99.90
6439;DHT22;3252;52.540;13.290;2023-07-31T13:04:29;20.00;99.90
6439;DHT22;3252;52.540;13.290;2023-07-31T13:06:32;19.90;99.90
6439;DHT22;3252;52.540;13.290;2023-07-31T13:08:35;19.70;99.90
6439;DHT22;3252;52.540;13.290;2023-07-31T13:10:44;19.60;99.90
6439;DHT22;3252;52.540;13.290;2023-07-31T13:12:47;19.60;99.90
6439;DHT22;3252;52.540;13.290;2023-07-31T13:14:51;19.60;99.90
6439;DHT22;3252;52.540;13.290;2023-07-31T13:16:53;19.70;99.90
6439;DHT22;3252;52.540;13.290;2023-07-31T13:18:56;19.70;99.90
6439;DHT22;3252;52.540;13.290;2023-07-31T13:21:00;19.80;99.90
6439;DHT22;3252;52.540;13.290;2023-07-31T13:23:03;19.80;99.90
6439;DHT22;3252;52.540;13.290;2023-07-31T13:25:07;19.90;99.90
6439;DHT22;3252;52.540;13.290;2023-07-31T13:27:11;19.90;99.90
6439;DHT22;3252;52.540;13.290;2023-07-31T13:29:14;19.90;99.90
6439;DHT22;3252;52.540;13.290;2023-07-31T13:31:17;20.00;99.90
6439;DHT22;3252;52.540;13.290;2023-07-31T13:33:20;20.00;99.90
6439;DHT22;3252;52.540;13.290;2023-07-31T13:35:23;20.10;99.90
6439;DHT22;3252;52.540;13.290;2023-07-31T13:37:29;20.20;99.90
6439;DHT22;3252;52.540;13.290;2023-07-31T13:39:32;20.20;99.90
6439;DHT22;3252;52.540;13.290;2023-07-31T13:41:38;20.30;99.90
6439;DHT22;3252;52.540;13.290;2023-07-31T13:43:43;20.40;99.90
6439;DHT22;3252;52.540;13.290;2023-07-31T13:45:46;20.40;99.90
6439;DHT22;3252;52.540;13.290;2023-07-31T13:47:50;20.50;99.90
6439;DHT22;3252;52.540;13.290;2023-07-31T13:49:54;20.50;99.90
6439;DHT22;3252;52.540;13.290;2023-07-31T13:52:00;20.60;99.90
6439;DHT22;3252;52.540;13.290;2023-07-31T13:54:12;20.60;99.90
6439;DHT22;3252;52.540;13.290;2023-07-31T13:56:16;20.60;99.90
6439;DHT22;3252;52.540;13.290;2023-07-31T13:58:20;20.60;99.90
6439;DHT22;3252;52.540;13.290;2023-07-31T14:00:24;20.60;99.90
6439;DHT22;3252;52.540;13.290;2023-07-31T14:02:26;20.60;99.90